createdAt,value
2022-12-04T00:00:15.230Z,97753
2022-12-04T00:05:51.196Z,97746.8
2022-12-04T00:11:32.260Z,97747.9
2022-12-04T00:17:10.137Z,97751.8
2022-12-04T00:22:47.345Z,97748.5
2022-12-04T00:28:41.703Z,97746.6
2022-12-04T00:34:19.807Z,97750.6
2022-12-04T00:40:03.338Z,97750.9
2022-12-04T00:45:48.591Z,97742.1
2022-12-04T00:51:24.178Z,97730.2
2022-12-04T00:57:03.271Z,97727.9
2022-12-04T01:02:38.660Z,97718.7
2022-12-04T01:08:23.609Z,97720.1
2022-12-04T01:14:06.915Z,97722.8
2022-12-04T01:19:42.046Z,97722.2
2022-12-04T01:25:56.906Z,97721.4
2022-12-04T01:31:33.854Z,97719.4
2022-12-04T01:37:11.498Z,97717.3
2022-12-04T01:42:47.428Z,97711.3
2022-12-04T01:48:49.810Z,97712.3
2022-12-04T01:54:22.321Z,97710.7
2022-12-04T01:59:58.490Z,97717.8
2022-12-04T02:05:33.869Z,97719.2
2022-12-04T02:11:11.045Z,97716.5
2022-12-04T02:16:53.470Z,97721.4
2022-12-04T02:22:33.815Z,97723.1
2022-12-04T02:28:09.239Z,97724.3
2022-12-04T02:33:46.716Z,97724.3
2022-12-04T02:39:35.051Z,97728.6
2022-12-04T02:45:10.448Z,97734.6
2022-12-04T02:50:45.432Z,97732.5
2022-12-04T02:56:22.396Z,97737.8
2022-12-04T03:02:00.381Z,97728
2022-12-04T03:07:36.102Z,97740.2
2022-12-04T03:13:12.427Z,97742.6
2022-12-04T03:18:58.304Z,97743.6
2022-12-04T03:25:00.838Z,97738.5
2022-12-04T03:30:52.689Z,97738
2022-12-04T03:36:29.074Z,97739.6
2022-12-04T03:42:27.528Z,97749.6
2022-12-04T03:48:45.494Z,97754
2022-12-04T03:54:18.165Z,97759.4
2022-12-04T04:00:06.897Z,97759.7
2022-12-04T04:05:54.659Z,97765.5
2022-12-04T04:11:37.557Z,97756.4
2022-12-04T04:17:12.708Z,97757.5
2022-12-04T04:22:57.013Z,97753.7
2022-12-04T04:28:46.070Z,97751
2022-12-04T04:34:23.236Z,97748.5
2022-12-04T04:40:01.440Z,97744.5
2022-12-04T04:45:36.275Z,97749.4
2022-12-04T04:51:14.185Z,97747.6
2022-12-04T04:56:49.136Z,97746.2
2022-12-04T05:02:33.609Z,97743.3
2022-12-04T05:08:39.952Z,97743.7
2022-12-04T05:14:44.025Z,97748.3
2022-12-04T05:20:19.231Z,97751.6
2022-12-04T05:26:20.132Z,97758.3
2022-12-04T05:32:11.927Z,97760
2022-12-04T05:37:51.519Z,97766.1
2022-12-04T05:43:31.887Z,97777.6
2022-12-04T05:49:28.578Z,97778.1
2022-12-04T05:55:01.231Z,97790.6
2022-12-04T06:00:45.763Z,97794.9
2022-12-04T06:06:27.840Z,97796.4
2022-12-04T06:12:02.778Z,97800.3
2022-12-04T06:17:45.841Z,97805.3
2022-12-04T06:23:30.211Z,97806.9
2022-12-04T06:29:17.364Z,97810
2022-12-04T06:35:07.907Z,97809.9
2022-12-04T06:40:53.169Z,97815.1
2022-12-04T06:46:55.636Z,97816
2022-12-04T06:52:28.406Z,97812.1
2022-12-04T06:58:03.349Z,97817.9
2022-12-04T07:03:38.220Z,97820.4
2022-12-04T07:09:13.105Z,97826.9
2022-12-04T07:14:48.651Z,97831
2022-12-04T07:20:23.893Z,97835.2
2022-12-04T07:25:58.677Z,97841.5
2022-12-04T07:32:19.435Z,97849.6
2022-12-04T07:38:00.906Z,97846.6
2022-12-04T07:43:52.452Z,97844.9
2022-12-04T07:49:40.095Z,97854.9
2022-12-04T07:55:23.937Z,97855
2022-12-04T08:01:17.090Z,97852.7
2022-12-04T08:07:09.336Z,97859.1
2022-12-04T08:12:46.855Z,97861.6
2022-12-04T08:18:22.570Z,97866.8
2022-12-04T08:24:05.851Z,97865.6
2022-12-04T08:29:48.368Z,97870
2022-12-04T08:35:37.852Z,97867.6
2022-12-04T08:41:38.163Z,97870.1
2022-12-04T08:47:13.775Z,97875.6
2022-12-04T08:52:52.009Z,97878.5
2022-12-04T08:58:42.627Z,97882.1
2022-12-04T09:04:22.673Z,97884.3
2022-12-04T09:10:28.994Z,97894.3
2022-12-04T09:16:28.191Z,97890.1
2022-12-04T09:22:10.227Z,97895.3
2022-12-04T09:27:53.308Z,97901.2
2022-12-04T09:34:11.883Z,97911.2
2022-12-04T09:39:55.451Z,97913.6
2022-12-04T09:45:32.529Z,97921.1
2022-12-04T09:51:28.632Z,97922.1
2022-12-04T09:57:03.628Z,97933.8
2022-12-04T10:02:52.522Z,97935.6
2022-12-04T10:08:28.775Z,97936.4
2022-12-04T10:14:14.087Z,97936.8
2022-12-04T10:19:59.397Z,97937.9
2022-12-04T10:25:50.467Z,97942.3
2022-12-04T10:31:33.251Z,97940.5
2022-12-04T10:37:38.793Z,97937.7
2022-12-04T10:43:14.959Z,97936.7
2022-12-04T10:48:53.530Z,97938.6
2022-12-04T10:54:37.247Z,97935
2022-12-04T11:00:20.606Z,97934.1
2022-12-04T11:06:04.263Z,97929.1
2022-12-04T11:11:57.222Z,97928.2
2022-12-04T11:17:43.186Z,97936.7
2022-12-04T11:23:18.266Z,97931.5
2022-12-04T11:28:57.983Z,97928.3
2022-12-04T11:34:34.501Z,97928.7
2022-12-04T11:40:17.095Z,97933.5
2022-12-04T11:45:52.939Z,97931.2
2022-12-04T11:51:28.290Z,97920
2022-12-04T11:57:12.220Z,97912.6
2022-12-04T12:03:11.963Z,97916
2022-12-04T12:08:56.116Z,97913.4
2022-12-04T12:14:32.827Z,97914.7
2022-12-04T12:20:16.955Z,97911.7
2022-12-04T12:25:53.598Z,97902.5
2022-12-04T12:31:29.887Z,97899.4
2022-12-04T12:37:06.062Z,97899.2
2022-12-04T12:42:42.198Z,97901.5
2022-12-04T12:48:39.899Z,97904
2022-12-04T12:54:13.957Z,97899.5
2022-12-04T12:59:50.306Z,97898.4
2022-12-04T13:05:25.834Z,97896.9
2022-12-04T13:11:00.719Z,97901.7
2022-12-04T13:16:44.817Z,97915.4
2022-12-04T13:22:59.303Z,97922.2
2022-12-04T13:28:42.159Z,97918.8
2022-12-04T13:34:19.726Z,97917.4
2022-12-04T13:40:25.042Z,97917.1
2022-12-04T13:46:01.102Z,97916.7
2022-12-04T13:51:42.985Z,97910.7
2022-12-04T13:57:18.734Z,97912.6
2022-12-04T14:02:55.197Z,97916.6
2022-12-04T14:08:33.550Z,97934
2022-12-04T14:14:20.376Z,97935.4
2022-12-04T14:20:08.713Z,97938.9
2022-12-04T14:25:45.466Z,97931.6
2022-12-04T14:32:47.039Z,97931.4
2022-12-04T14:38:42.404Z,97944.8
2022-12-04T14:44:37.863Z,97949.3
2022-12-04T14:50:16.159Z,97955.3
2022-12-04T14:56:08.523Z,97960.3
2022-12-04T15:01:58.337Z,97966.5
2022-12-04T15:07:40.077Z,97968.7
2022-12-04T15:13:22.123Z,97975.5
2022-12-04T15:19:05.573Z,97984.3
2022-12-04T15:24:53.303Z,97984.1
2022-12-04T15:30:30.973Z,97991.8
2022-12-04T15:36:05.807Z,97996.4
2022-12-04T15:42:04.418Z,97999
2022-12-04T15:48:09.386Z,98009
2022-12-04T15:53:41.898Z,98015.6
2022-12-04T15:59:17.168Z,98018.4
2022-12-04T16:04:58.178Z,98020.9
2022-12-04T16:10:35.120Z,98032.3
2022-12-04T16:16:10.483Z,98036.5
2022-12-04T16:21:46.611Z,98046.5
2022-12-04T16:27:24.175Z,98057
2022-12-04T16:32:59.628Z,98061.7
2022-12-04T16:38:36.002Z,98070.4
2022-12-04T16:44:11.185Z,98074.5
2022-12-04T16:49:51.447Z,98077.7
2022-12-04T16:55:26.698Z,98085.9
2022-12-04T17:01:01.745Z,98093.3
2022-12-04T17:06:44.095Z,98105
2022-12-04T17:12:22.635Z,98107.4
2022-12-04T17:18:40.403Z,98116.2
2022-12-04T17:24:26.908Z,98124.1
2022-12-04T17:30:03.150Z,98122.8
2022-12-04T17:36:03.439Z,98120.5
2022-12-04T17:41:39.521Z,98125.4
2022-12-04T17:47:40.255Z,98127.2
2022-12-04T17:53:13.328Z,98129.6
2022-12-04T17:58:55.418Z,98131.3
2022-12-04T18:04:31.722Z,98137.9
2022-12-04T18:10:10.164Z,98143.5
2022-12-04T18:15:59.459Z,98149
2022-12-04T18:21:56.811Z,98154.4
2022-12-04T18:27:42.755Z,98159.3
2022-12-04T18:33:40.641Z,98164.6
2022-12-04T18:39:15.962Z,98170.1
2022-12-04T18:44:51.235Z,98175.7
2022-12-04T18:50:26.613Z,98185.2
2022-12-04T18:56:29.398Z,98188.2
2022-12-04T19:02:07.879Z,98196.5
2022-12-04T19:07:44.535Z,98203
2022-12-04T19:13:20.561Z,98205.5
2022-12-04T19:18:55.985Z,98208
2022-12-04T19:24:31.071Z,98209.3
2022-12-04T19:30:05.839Z,98207.7
2022-12-04T19:35:41.060Z,98215.1
2022-12-04T19:41:16.140Z,98219.5
2022-12-04T19:46:51.276Z,98220.8
2022-12-04T19:52:26.996Z,98229.5
2022-12-04T19:58:06.253Z,98232.3
2022-12-04T20:03:41.785Z,98244.3
2022-12-04T20:09:24.381Z,98249.9
2022-12-04T20:15:05.134Z,98258.3
2022-12-04T20:20:44.238Z,98260.7
2022-12-04T20:26:19.740Z,98258
2022-12-04T20:31:54.640Z,98267.5
2022-12-04T20:37:30.193Z,98273.7
2022-12-04T20:43:06.189Z,98270.4
2022-12-04T20:49:03.451Z,98274.7
2022-12-04T20:54:48.132Z,98280.3
2022-12-04T21:00:26.582Z,98283.7
2022-12-04T21:07:10.841Z,98283.9
2022-12-04T21:12:49.356Z,98284.4
2022-12-04T21:18:24.818Z,98287.7
2022-12-04T21:23:59.899Z,98290.8
2022-12-04T21:29:39.508Z,98299.1
2022-12-04T21:35:22.736Z,98292.3
2022-12-04T21:40:58.411Z,98285.6
2022-12-04T21:46:56.358Z,98291.5
2022-12-04T21:52:32.183Z,98299.5
2022-12-04T21:58:27.942Z,98296.2
2022-12-04T22:04:03.738Z,98302.3
2022-12-04T22:09:42.737Z,98292.6
2022-12-04T22:15:20.610Z,98296.5
2022-12-04T22:20:55.854Z,98304.3
2022-12-04T22:26:31.576Z,98312.5
2022-12-04T22:32:09.739Z,98309
2022-12-04T22:37:54.236Z,98312.4
2022-12-04T22:43:41.361Z,98316.8
2022-12-04T22:49:38.184Z,98318.7
2022-12-04T22:55:11.334Z,98322.5
2022-12-04T23:00:46.371Z,98321.8
2022-12-04T23:06:22.303Z,98316.8
2022-12-04T23:11:57.588Z,98322.1
2022-12-04T23:17:32.944Z,98326.2
2022-12-04T23:23:09.393Z,98324.8
2022-12-04T23:29:53.777Z,98319.8
2022-12-04T23:35:34.142Z,98330.2
2022-12-04T23:41:20.480Z,98322.9
2022-12-04T23:47:25.293Z,98330.3
2022-12-04T23:52:58.464Z,98341.3
2022-12-04T23:58:43.394Z,98334.1
